Nearby METAR Reports

 

KPMD - Palmdale, California, USA
Distance from station: NNE 12mi, 19km
Updated: Tue, 23-Oct-2018 7:53pm PDT
Clear
Clear
 Wind from NW
Wind: NW 15 mph , 24 km/h
Temperature: 70°F , 21°C
Dew Point: 36°F , 2°C
Humidity: 29%
Barometer: 29.95 inHg , 1014.2 hPa
Clouds: Clear
Visibility: 10 miles , 16 km
2018/10/24 02:53 KPMD 240253Z 31013KT 10SM CLR 21/02 A2995 RMK AO2 SLP127 T02060017 53007
KWJF - Lancaster/Fox, California, USA
Distance from station: N 17mi, 27km
Updated: Tue, 23-Oct-2018 7:56pm PDT
Clear
Clear
 Wind from W
Wind: W 12 mph , 19 km/h
Temperature: 66°F , 19°C
Dew Point: 37°F , 3°C
Humidity: 35%
Barometer: 29.95 inHg , 1014.2 hPa
Clouds: Clear
Visibility: 10 miles , 16 km
2018/10/24 02:56 KWJF 240256Z 28010KT 10SM CLR 19/03 A2995 RMK AO2 SLP135 T01890033 53012
 
KMWS - Mount Wilson, California, USA
Distance from station: SSE 18mi, 30km
Updated: Wed, 13-May-2015 6:45am PDT
NOT Current

 Wind from S
Wind: S 3 mph , 6 km/h, Gust: 5 mph , 7 km/h
Temperature: 43°F , 6°C
Dew Point: -0°F , -18°C
Humidity: 16%
2015/05/13 13:45 KMWS 131345Z 18003G04KT 06/M18 RMK SNOW DEPTH 1.00
KWHP - La / Whiteman, California, USA
Distance from station: SW 21mi, 34km
Updated: Tue, 23-Oct-2018 7:55pm PDT
Clear
Clear
 Wind from calm
Wind: Calm
Temperature: 70°F , 21°C
Dew Point: 57°F , 14°C
Humidity: 64%
Barometer: 29.91 inHg , 1012.9 hPa
Clouds: Clear
Visibility: 10 miles , 16 km
2018/10/24 02:55 KWHP 240255Z COR 00000KT 10SM SKC 21/14 A2991 RMK LAST
 
KBUR - Burbank, California, USA
Distance from station: SSW 22mi, 35km
Updated: Tue, 23-Oct-2018 7:53pm PDT
Clear
Clear
 Wind from calm
Wind: Calm
Temperature: 70°F , 21°C
Dew Point: 61°F , 16°C
Humidity: 73%
Barometer: 29.86 inHg , 1011.2 hPa
Clouds: Clear
Visibility: 10 miles , 16 km
2018/10/24 02:53 KBUR 240253Z 00000KT 10SM CLR 21/16 A2986 RMK AO2 SLP102 T02060161 53006
KVNY - Van Nuys, California, USA
Distance from station: SW 25mi, 40km
Updated: Tue, 23-Oct-2018 7:51pm PDT
Clear
Clear
 Wind from WNW
Wind: WNW 3 mph , 6 km/h
Temperature: 73°F , 23°C
Dew Point: 46°F , 8°C
Humidity: 38%
Barometer: 29.86 inHg , 1011.2 hPa
Clouds: Clear
Visibility: 10 miles , 16 km
2018/10/24 02:51 KVNY 240251Z 29003KT 10SM CLR 23/08 A2986 RMK AO2 SLP105 T02280083 53007
 
KEDW - Edwards Afb, California, USA
Distance from station: NNE 33mi, 53km
Updated: Tue, 23-Oct-2018 7:58pm PDT
Mostly cloudy
Mostly cloudy
 Wind from WNW
Wind: WNW 15 mph , 24 km/h
Temperature: 70°F , 21°C
Dew Point: 39°F , 4°C
Humidity: 33%
Barometer: 29.91 inHg , 1012.9 hPa
Clouds: Mostly cloudy
Visibility: 60 miles , 96 km
Cloud details: Mostly cloudy 30000 ft
2018/10/24 02:58 KEDW 240258Z 29013KT 60SM BKN300 21/04 A2991 RMK AO2A SLP117 T02050037 53006
KSMO - Santa Monica, California, USA
Distance from station: SSW 35mi, 57km
Updated: Tue, 23-Oct-2018 7:51pm PDT
Clear
Clear
 Wind from calm
Wind: Calm
Temperature: 66°F , 19°C
Dew Point: 59°F , 15°C
Humidity: 78%
Barometer: 29.86 inHg , 1011.2 hPa
Clouds: Clear
Visibility: 10 miles , 16 km
2018/10/24 02:51 KSMO 240251Z 00000KT 10SM CLR 19/15 A2986 RMK AO2 SLP110 T01890150 53000
 
KLAX - Los Angeles, California, USA
Distance from station: SSW 39mi, 63km
Updated: Tue, 23-Oct-2018 7:53pm PDT
Few Clouds
Few Clouds
 Wind from varies
Wind: varies 3 mph , 6 km/h
Temperature: 66°F , 19°C
Dew Point: 59°F , 15°C
Humidity: 78%
Barometer: 29.85 inHg , 1010.8 hPa
Clouds: Few Clouds
Visibility: 10 miles , 16 km
Cloud details: Few Clouds 20000 ft
Few Clouds 25000 ft
2018/10/24 02:53 KLAX 240253Z VRB03KT 10SM FEW200 FEW250 19/15 A2985 RMK AO2 SLP108 T01940150 55000
KMHV - Mojave, California, USA
Distance from station: N 41mi, 66km
Updated: Tue, 23-Oct-2018 8:20pm PDT
Clear
Clear
 Wind from NW
Wind: NW 17 mph , 28 km/h, Gust: 25 mph , 41 km/h
Temperature: 66°F , 19°C
Dew Point: 41°F , 5°C
Humidity: 40%
Barometer: 29.95 inHg , 1014.2 hPa
Clouds: Clear
Visibility: 10 miles , 16 km
2018/10/24 03:20 KMHV 240320Z AUTO 31015G22KT 10SM CLR 19/05 A2995 RMK A01
 
KFUL - Fullerton, California, USA
Distance from station: SSE 44mi, 70km
Updated: Tue, 23-Oct-2018 7:53pm PDT
Clear
Clear
 Wind from calm
Wind: Calm
Temperature: 68°F , 20°C
Dew Point: 57°F , 14°C
Humidity: 69%
Barometer: 29.85 inHg , 1010.8 hPa
Clouds: Clear
Visibility: 10 miles , 16 km
2018/10/24 02:53 KFUL 240253Z 00000KT 10SM CLR 20/14 A2985 RMK AO2 SLP107 T02000139 53006
KONT - Ontario, California, USA
Distance from station: SE 45mi, 72km
Updated: Tue, 23-Oct-2018 7:53pm PDT
Partly cloudy
Partly cloudy
 Wind from calm
Wind: Calm
Temperature: 70°F , 21°C
Dew Point: 55°F , 13°C
Humidity: 60%
Barometer: 29.87 inHg , 1011.5 hPa
Clouds: Partly cloudy
Visibility: 10 miles , 16 km
Cloud details: Partly cloudy 25000 ft
2018/10/24 02:53 KONT 240253Z 00000KT 10SM SCT250 21/13 A2987 RMK AO2 SLP107 T02060128 53013
 
KLGB - Long Beach, California, USA
Distance from station: S 46mi, 74km
Updated: Tue, 23-Oct-2018 7:53pm PDT
Clear
Clear
 Wind from NW
Wind: NW 3 mph , 6 km/h
Temperature: 66°F , 19°C
Dew Point: 59°F , 15°C
Humidity: 78%
Barometer: 29.86 inHg , 1011.2 hPa
Clouds: Clear
Visibility: 10 miles , 16 km
2018/10/24 02:53 KLGB 240253Z 32003KT 10SM CLR 19/15 A2986 RMK AO2 SLP110 T01940150 53006
KVCV - Victorville, California, USA
Distance from station: E 46mi, 74km
Updated: Tue, 23-Oct-2018 7:46pm PDT
Clear
Clear
 Wind from calm
Wind: Calm
Barometer: 29.95 inHg , 1014.2 hPa
Clouds: Clear
Visibility: 10 miles , 16 km
2018/10/24 02:46 KVCV 240246Z 00000KT 10SM SKC A2995
 
KTSP - Tehachapi, California, USA
Distance from station: NNW 48mi, 77km
Updated: Tue, 23-Oct-2018 8:35pm PDT
Clear
Clear
 Wind from NNW
Wind: NNW 3 mph , 6 km/h
Temperature: 52°F , 11°C
Dew Point: 39°F , 4°C
Humidity: 62%
Barometer: 30.07 inHg , 1018.3 hPa
Clouds: Clear
Visibility: 8 miles , 13 km
2018/10/24 03:35 KTSP 240335Z AUTO 34003KT 8SM CLR 11/04 A3007 RMK AO2